Shockey Truck Trail (448) Station Data

Red Flag Warning: No
Fire Weather Zone: 258
SDGE Region: Mountain Empire
Lat/Lon: 32.634/-116.423

Observations

Time Wind Speed/Gust Temp(F) RH Fuel Moist Fuel Temp(F) Dewpt(F) Tmax(F) Tmin(F) Accum Precip 10-min Precip SL Press(mb)
4/26 2:40am 23 5 G 8 44° 87% - - 40° 45.3° 43.1° - - 887.0
4/26 2:30am 38 6 G 8 43° 87% - - 40° 45.3° 43.1° - - 887.0
4/26 2:20am 44 6 G 8 43° 87% - - 40° 45.3° 43.1° - - 887.0
4/26 2:10am 47 6 G 8 44° 87% - - 40° 45.3° 43.4° - - 887.0
4/26 2:00am 44 5 G 7 44° 88% - - 40° 45.3° 43.4° - - 887.0
4/26 1:50am 41 5 G 7 44° 87% - - 40° 45.3° 43.5° - - 887.0
4/26 1:40am 51 7 G 10 44° 88% - - 40° 45.3° 43.5° - - 888.0
4/26 1:30am 34 4 G 6 44° 88% - - 40° 45.3° 43.5° - - 888.0
4/26 1:20am 39 5 G 8 44° 87% - - 40° 45.3° 43.5° - - 887.0
4/26 1:10am 58 6 G 8 45° 87% - - 41° 45.3° 44.4° - - 887.0
4/26 1:00am 49 5 G 7 45° 87% - - 41° 45.3° 44.4° - - 887.0
4/26 12:50am 48 5 G 7 45° 87% - - 41° 45.3° 44.4° - - 887.0
4/26 12:40am 50 6 G 8 45° 87% - - 41° 45.3° 44.4° - - 887.0
4/26 12:30am 45 6 G 9 45° 87% - - 41° 45.3° 44.4° - - 887.0
4/26 12:20am 46 6 G 8 45° 87% - - 41° 45.3° 44.4° - - 887.0
4/26 12:10am 49 5 G 7 45° 87% - - 41° 45.3° 44.5° - - 887.0
4/26 12:00am 54 6 G 8 45° 87% - - 41° 65.7° 44.7° - - 887.0
4/25 11:50pm 48 5 G 8 45° 87% - - 41° 65.7° 44.7° - - 887.0
4/25 11:40pm 48 5 G 7 45° 87% - - 41° 65.7° 44.8° - - 887.0
4/25 11:30pm 51 5 G 8 45° 86% - - 42° 65.7° 45.2° - - 887.0
4/25 11:20pm 48 5 G 7 46° 85% - - 42° 65.7° 45.5° - - 887.0
4/25 11:10pm 60 5 G 6 47° 85% - - 43° 65.7° 46.4° - - 887.0
4/25 11:00pm 26 3 G 4 47° 85% - - 42° 65.7° 46.4° - - 887.0
4/25 10:50pm 12 2 G 3 47° 84% - - 42° 65.7° 46.4° - - 887.0
4/25 10:40pm 12 2 G 3 47° 83% - - 42° 65.7° 46.7° - - 886.0
4/25 10:30pm 14 3 G 4 48° 80% - - 43° 65.7° 47.2° - - 885.0
4/25 10:20pm 171 1 G 3 50° 80% - - 44° 65.7° 48.3° - - 885.0
4/25 10:10pm 189 1 G 2 50° 79% - - 44° 65.7° 48.3° - - 885.0
4/25 10:00pm 183 2 G 4 50° 80% - - 44° 65.7° 48.3° - - 886.0
4/25 9:50pm 212 3 G 4 51° 79% - - 45° 65.7° 48.3° - - 885.0
4/25 9:40pm 242 3 G 5 50° 79% - - 44° 65.7° 48.3° - - 885.0
4/25 9:30pm 217 3 G 6 50° 79% - - 44° 65.7° 48.3° - - 885.0
4/25 9:20pm 223 4 G 8 51° 77% - - 44° 65.7° 48.3° - - 884.0
4/25 9:10pm 264 4 G 7 51° 77% - - 44° 65.7° 48.3° - - 884.0
4/25 9:00pm 249 3 G 7 51° 79% - - 45° 65.7° 48.3° - - 886.0
4/25 8:50pm 245 4 G 6 52° 81% - - 46° 65.7° 48.3° - - 886.0
4/25 8:40pm 237 3 G 5 52° 81% - - 46° 65.7° 48.3° - - 886.0
4/25 8:30pm 220 2 G 4 52° 79% - - 46° 65.7° 48.3° - - 886.0
4/25 8:20pm 234 4 G 7 53° 77% - - 46° 65.7° 48.3° - - 885.0
4/25 8:10pm 246 5 G 8 53° 76% - - 46° 65.7° 48.3° - - 885.0
4/25 8:00pm 268 5 G 11 53° 77% - - 46° 65.7° 48.3° - - 885.0
4/25 7:50pm 251 6 G 11 54° 77% - - 47° 65.7° 48.3° - - 885.0
4/25 7:40pm 256 6 G 11 54° 76% - - 47° 65.7° 48.3° - - 885.0
4/25 7:30pm 255 6 G 11 54° 76% - - 47° 65.7° 48.3° - - 885.0
4/25 7:20pm 252 6 G 11 55° 75% - - 47° 65.7° 48.3° - - 885.0
4/25 7:10pm 253 8 G 13 55° 74% - - 47° 65.7° 48.3° - - 884.0
4/25 7:00pm 262 8 G 14 55° 73% - - 47° 65.7° 48.3° - - 884.0
4/25 6:50pm 243 8 G 14 55° 72% - - 47° 65.7° 48.3° - - 884.0
4/25 6:40pm 243 7 G 13 56° 71% - - 47° 65.7° 48.3° - - 883.0
4/25 6:30pm 251 9 G 15 56° 70% - - 47° 65.7° 48.3° - - 883.0
4/25 6:20pm 248 8 G 14 56° 69% - - 47° 65.7° 48.3° - - 883.0
4/25 6:10pm 257 9 G 17 57° 69% - - 46° 65.7° 48.3° - - 882.0
4/25 6:00pm 249 8 G 13 57° 68% - - 47° 65.7° 48.3° - - 882.0
4/25 5:50pm 248 9 G 15 57° 67% - - 47° 65.7° 48.3° - - 882.0
4/25 5:40pm 254 8 G 14 58° 65% - - 46° 65.7° 48.3° - - 881.0
4/25 5:30pm 247 7 G 12 58° 66% - - 46° 65.7° 48.3° - - 882.0
4/25 5:20pm 265 7 G 14 58° 64% - - 46° 65.7° 48.3° - - 881.0
4/25 5:10pm 259 8 G 16 59° 61% - - 45° 65.7° 48.3° - - 880.0
4/25 5:00pm 261 8 G 14 59° 59% - - 45° 65.7° 48.3° - - 879.0
4/25 4:50pm 262 7 G 13 59° 61% - - 46° 65.7° 48.3° - - 880.0
4/25 4:40pm 268 9 G 16 60° 59% - - 45° 65.7° 48.3° - - 879.0
4/25 4:30pm 273 9 G 19 61° 56% - - 45° 65.7° 48.3° - - 878.0
4/25 4:20pm 272 6 G 16 62° 55% - - 45° 65.7° 48.3° - - 878.0
4/25 4:10pm 265 10 G 17 61° 56% - - 45° 65.7° 48.3° - - 878.0
4/25 4:00pm 268 8 G 17 61° 55% - - 45° 65.7° 48.3° - - 878.0
4/25 3:50pm 257 9 G 18 61° 56% - - 45° 65.7° 48.3° - - 878.0
4/25 3:40pm 256 9 G 18 61° 57% - - 45° 65.7° 48.3° - - 879.0
4/25 3:30pm 249 10 G 15 61° 54% - - 45° 65.7° 48.3° - - 877.0
4/25 3:20pm 253 10 G 17 61° 51% - - 43° 65.7° 48.3° - - 876.0
4/25 3:10pm 245 10 G 16 62° 52% - - 44° 65.7° 48.3° - - 877.0
4/25 3:00pm 245 10 G 16 62° 50% - - 43° 65.7° 48.3° - - 876.0
4/25 2:50pm 270 8 G 14 63° 50% - - 44° 65.7° 48.3° - - 876.0
4/25 2:40pm 265 8 G 14 63° 49% - - 43° 65.7° 48.3° - - 876.0
4/25 2:30pm 254 6 G 14 63° 48% - - 43° 65.7° 48.3° - - 875.0
4/25 2:20pm 270 9 G 15 63° 48% - - 43° 65.7° 48.3° - - 875.0
4/25 2:10pm 258 9 G 17 64° 47% - - 43° 65.7° 48.3° - - 875.0
4/25 2:00pm 250 9 G 16 64° 45% - - 42° 65.7° 48.3° - - 874.0
4/25 1:50pm 270 7 G 15 64° 44% - - 42° 65.7° 48.3° - - 874.0
4/25 1:40pm 258 8 G 17 63° 46% - - 42° 65.7° 48.3° - - 875.0
4/25 1:30pm 258 9 G 17 63° 46% - - 42° 64° 48.3° - - 874.0
4/25 1:20pm 278 8 G 15 63° 44% - - 41° 64° 48.3° - - 874.0
4/25 1:10pm 293 6 G 13 64° 45% - - 42° 64° 48.3° - - 874.0
4/25 1:00pm 284 7 G 15 63° 45% - - 41° 63.6° 48.3° - - 874.0
4/25 12:50pm 279 8 G 16 63° 45% - - 41° 63.3° 48.3° - - 874.0
4/25 12:40pm 268 9 G 19 62° 45% - - 40° 62.9° 48.3° - - 874.0
4/25 12:30pm 271 8 G 20 62° 47% - - 41° 62.9° 48.3° - - 875.0
4/25 12:20pm 262 9 G 19 61° 49% - - 42° 61.8° 48.3° - - 875.0
4/25 12:10pm 260 11 G 20 61° 49% - - 42° 61.8° 48.3° - - 875.0
4/25 12:00pm 268 10 G 18 60° 51% - - 42° 61.5° 48.3° - - 876.0
4/25 11:50am 273 9 G 19 60° 51% - - 42° 61.1° 48.3° - - 876.0
4/25 11:40am 263 10 G 19 60° 52% - - 42° 61.1° 48.3° - - 876.0
4/25 11:30am 269 10 G 20 60° 52% - - 43° 61.1° 48.3° - - 876.0
4/25 11:20am 265 9 G 19 60° 53% - - 43° 61.1° 48.3° - - 877.0
4/25 11:10am 250 10 G 16 59° 55% - - 43° 59.7° 48.3° - - 877.0
4/25 11:00am 245 9 G 17 59° 56% - - 44° 59.7° 48.3° - - 878.0
4/25 10:50am 250 10 G 17 58° 58% - - 43° 59° 48.3° - - 878.0
4/25 10:40am 263 10 G 20 58° 59% - - 43° 58.4° 48.3° - - 879.0
4/25 10:30am 253 10 G 17 57° 63% - - 44° 58.4° 48.3° - - 880.0
4/25 10:20am 259 9 G 18 57° 63% - - 44° 57.4° 48.3° - - 880.0
4/25 10:10am 243 10 G 17 56° 65% - - 45° 56.8° 48.3° - - 881.0
4/25 10:00am 237 11 G 19 56° 67% - - 45° 56.5° 48.3° - - 882.0
4/25 9:50am 248 10 G 17 56° 67% - - 45° 56.5° 48.3° - - 881.0
4/25 9:40am 242 9 G 14 55° 69% - - 45° 55.8° 48.3° - - 882.0
4/25 9:30am 229 8 G 14 54° 73% - - 45° 54.2° 48.3° - - 883.0
4/25 9:20am 238 8 G 12 53° 75% - - 45° 54° 48.3° - - 884.0
4/25 9:10am 219 8 G 14 52° 78% - - 45° 52.5° 48.3° - - 885.0
4/25 9:00am 219 9 G 13 52° 79% - - 45° 52.1° 48.3° - - 886.0
4/25 8:50am 221 10 G 15 51° 80% - - 45° 51.8° 48.3° - - 886.0
4/25 8:40am 223 7 G 11 52° 80% - - 46° 51.8° 48.3° - - 886.0
4/25 8:30am 224 9 G 17 51° 82% - - 46° 51.4° 48.3° - - 887.0
4/25 8:20am 229 9 G 17 51° 84% - - 46° 51.3° 48.3° - - 887.0
4/25 8:10am 233 11 G 18 51° 84% - - 46° 51.3° 48.3° - - 887.0
4/25 8:00am 237 9 G 14 51° 84% - - 46° 51.3° 48.3° - - 888.0
4/25 7:50am 234 9 G 16 51° 86% - - 47° 50.8° 48.3° - - 888.0
4/25 7:40am 239 9 G 16 50° 88% - - 47° 50.5° 48.3° - - 889.0
4/25 7:30am 238 10 G 15 50° 90% - - 47° 50.1° 48.3° - - 890.0
4/25 7:20am 238 9 G 14 50° 91% - - 47° 49.9° 48.3° - - 890.0
4/25 7:10am 244 10 G 16 49° 91% - - 47° 49.5° 48.3° - - 890.0
4/25 7:00am 242 10 G 17 49° 91% - - 47° 49.5° 48.3° - - 890.0
4/25 6:50am 243 9 G 15 49° 91% - - 47° 49.5° 48.3° - - 890.0
4/25 6:40am 247 8 G 14 49° 91% - - 47° 49.5° 48.3° - - 890.0
4/25 6:30am 252 7 G 11 49° 91% - - 47° 49.5° 48.3° - - 890.0
4/25 6:20am 248 6 G 9 49° 91% - - 47° 49.5° 48.3° - - 890.0
4/25 6:10am 246 6 G 10 49° 90% - - 46° 49.5° 48.3° - - 890.0
4/25 6:00am 246 5 G 10 49° 89% - - 46° 49.5° 48.3° - - 889.0
4/25 5:50am 232 7 G 11 49° 89% - - 46° 49.5° 48.3° - - 889.0
4/25 5:40am 229 7 G 12 49° 89% - - 46° 49.5° 48.3° - - 889.0
4/25 5:30am 233 6 G 10 49° 90% - - 47° 49.5° 48.3° - - 890.0
4/25 5:20am 238 7 G 12 49° 91% - - 47° 49.5° 48.3° - - 890.0
4/25 5:10am 253 5 G 8 49° 90% - - 47° 49.5° 48.3° - - 890.0
4/25 5:00am 225 7 G 11 49° 90% - - 46° 49.5° 48.3° - - 889.0
4/25 4:50am 218 8 G 12 49° 90% - - 46° 49.5° 48.3° - - 890.0
4/25 4:40am 216 8 G 13 49° 90% - - 47° 49.5° 48.3° - - 890.0
4/25 4:30am 214 7 G 11 49° 90% - - 47° 49.5° 48.3° - - 890.0
4/25 4:20am 224 6 G 10 49° 90% - - 47° 49.5° 48.3° - - 890.0
4/25 4:10am 225 6 G 11 49° 90% - - 47° 49.5° 48.3° - - 890.0
4/25 4:00am 221 7 G 12 49° 91% - - 47° 49.5° 48.3° - - 890.0
4/25 3:50am 221 6 G 10 49° 91% - - 47° 49.5° 48.3° - - 890.0
4/25 3:40am 220 8 G 12 49° 90% - - 46° 49.5° 48.3° - - 890.0
4/25 3:30am 211 8 G 12 49° 90% - - 46° 49.5° 48.3° - - 890.0
4/25 3:20am 216 8 G 12 49° 90% - - 46° 49.5° 48.3° - - 889.0
4/25 3:10am 236 7 G 12 49° 89% - - 46° 49.5° 48.3° - - 889.0
4/25 3:00am 219 8 G 11 49° 89% - - 46° 49.5° 48.3° - - 889.0
4/25 2:50am 222 7 G 12 49° 87% - - 46° 49.5° 48.3° - - 889.0
4/25 2:40am 227 7 G 10 49° 87% - - 46° 49.5° 48.3° - - 888.0
4/25 2:30am 220 7 G 11 49° 87% - - 46° 49.5° 48.3° - - 889.0
4/25 2:20am 223 8 G 13 49° 89% - - 46° 49.5° 48.3° - - 889.0
4/25 2:10am 223 10 G 16 49° 89% - - 46° 49.5° 48.3° - - 889.0
4/25 2:00am 221 9 G 16 49° 87% - - 46° 49.5° 48.3° - - 888.0
4/25 1:50am 214 10 G 13 49° 86% - - 45° 49.5° 48.3° - - 888.0
4/25 1:40am 220 8 G 12 49° 86% - - 45° 49.5° 48.3° - - 888.0
4/25 1:30am 215 8 G 12 49° 86% - - 45° 49.5° 48.3° - - 888.0
4/25 1:20am 221 6 G 10 49° 86% - - 45° 49.3° 48.3° - - 888.0
4/25 1:10am 218 8 G 12 49° 86% - - 45° 49.3° 48.3° - - 888.0
4/25 1:00am 213 8 G 13 49° 87% - - 45° 49.3° 48.3° - - 888.0
4/25 12:50am 213 9 G 14 49° 88% - - 45° 49.3° 48.3° - - 889.0
4/25 12:40am 204 10 G 14 48° 89% - - 45° 49.3° 48.3° - - 889.0
4/25 12:30am 206 10 G 16 49° 89% - - 46° 49.3° 48.3° - - 889.0
4/25 12:20am 224 8 G 14 49° 89% - - 46° 49.3° 48.6° - - 889.0
4/25 12:10am 228 10 G 15 49° 88% - - 46° 49.3° 48.8° - - 889.0
4/25 12:00am 237 10 G 15 49° 88% - - 46° 67.3° 39.9° - - 889.0
4/24 11:50pm 239 10 G 16 49° 90% - - 46° 67.3° 39.9° - - 890.0
4/24 11:40pm 241 8 G 13 49° 91% - - 46° 67.3° 39.9° - - 890.0
4/24 11:30pm 236 7 G 10 49° 91% - - 46° 67.3° 39.9° - - 890.0
4/24 11:20pm 231 5 G 9 49° 91% - - 47° 67.3° 39.9° - - 890.0
4/24 11:10pm 229 4 G 7 49° 90% - - 46° 67.3° 39.9° - - 890.0
4/24 11:00pm 236 4 G 7 49° 90% - - 46° 67.3° 39.9° - - 890.0
4/24 10:50pm 228 4 G 8 49° 89% - - 46° 67.3° 39.9° - - 889.0
4/24 10:40pm 218 6 G 10 49° 88% - - 46° 67.3° 39.9° - - 889.0
4/24 10:30pm 232 6 G 9 50° 87% - - 46° 67.3° 39.9° - - 888.0
4/24 10:20pm 238 6 G 8 50° 86% - - 46° 67.3° 39.9° - - 888.0
4/24 10:10pm 234 6 G 9 51° 87% - - 47° 67.3° 39.9° - - 889.0
4/24 10:00pm 236 6 G 9 51° 87% - - 47° 67.3° 39.9° - - 889.0
4/24 9:50pm 240 6 G 10 51° 86% - - 47° 67.3° 39.9° - - 889.0
4/24 9:40pm 228 8 G 13 51° 88% - - 48° 67.3° 39.9° - - 889.0
4/24 9:30pm 233 6 G 11 51° 88% - - 48° 67.3° 39.9° - - 889.0
4/24 9:20pm 256 4 G 8 51° 89% - - 48° 67.3° 39.9° - - 890.0
4/24 9:10pm 264 5 G 8 52° 89% - - 48° 67.3° 39.9° - - 890.0
4/24 9:00pm 259 5 G 8 52° 89% - - 49° 67.3° 39.9° - - 890.0
4/24 8:50pm 255 5 G 9 52° 89% - - 49° 67.3° 39.9° - - 890.0
4/24 8:40pm 254 7 G 11 52° 88% - - 49° 67.3° 39.9° - - 889.0
4/24 8:30pm 256 5 G 10 52° 87% - - 48° 67.3° 39.9° - - 889.0
4/24 8:20pm 255 6 G 10 53° 86% - - 49° 67.3° 39.9° - - 889.0
4/24 8:10pm 254 7 G 13 53° 85% - - 48° 67.3° 39.9° - - 888.0
4/24 8:00pm 251 8 G 15 53° 83% - - 48° 67.3° 39.9° - - 887.0
4/24 7:50pm 248 8 G 15 54° 80% - - 48° 67.3° 39.9° - - 886.0
4/24 7:40pm 248 8 G 15 54° 78% - - 48° 67.3° 39.9° - - 886.0
4/24 7:30pm 249 8 G 13 55° 76% - - 47° 67.3° 39.9° - - 885.0
4/24 7:20pm 245 8 G 16 55° 74% - - 47° 67.3° 39.9° - - 884.0
4/24 7:10pm 240 12 G 19 56° 72% - - 47° 67.3° 39.9° - - 884.0
4/24 7:00pm 236 12 G 18 56° 71% - - 47° 67.3° 39.9° - - 883.0
4/24 6:50pm 236 10 G 17 57° 69% - - 47° 67.3° 39.9° - - 883.0
4/24 6:40pm 233 13 G 18 58° 68% - - 47° 67.3° 39.9° - - 882.0
4/24 6:30pm 233 12 G 21 59° 65% - - 47° 67.3° 39.9° - - 881.0
4/24 6:20pm 237 13 G 19 59° 63% - - 47° 67.3° 39.9° - - 881.0
4/24 6:10pm 237 11 G 21 60° 61% - - 46° 67.3° 39.9° - - 880.0
4/24 6:00pm 246 12 G 19 61° 57% - - 45° 67.3° 39.9° - - 879.0